Time;durP1;ratioP1;P1;durP2;ratioP2;P2;SDS_P1;SDS_P2;PMS_P1;PMS_P2;Temp;Humidity;BMP_temperature;BMP_pressure;BME280_temperature;BME280_humidity;BME280_pressure;Samples;Min_cycle;Max_cycle;Signal;HPM_P1;HPM_P2
2022/11/25 00:01:29;;;;;;;;;;;6.70;66.10;;;1.80;100.00;95451.50;5012037;28;20454;-57
2022/11/25 00:04:04;;;;;;;;;;;6.70;66.10;;;1.83;100.00;95454.50;4993894;28;19924;-57
2022/11/25 00:06:34;;;;;;;;;;;6.70;66.10;;;1.84;100.00;95450.06;5010453;28;20299;-56
2022/11/25 00:09:13;;;;;;;;;;;6.80;66.20;;;1.80;100.00;95454.94;5011735;28;19920;-57
2022/11/25 00:11:41;;;;;;;;;;;6.80;66.20;;;1.80;100.00;95459.41;4992768;28;19939;-58
2022/11/25 00:14:14;;;;;;;;;;;6.80;66.10;;;1.80;100.00;95462.81;5009708;28;19912;-57
2022/11/25 00:16:39;;;;;;;;;;;6.80;66.20;;;1.80;100.00;95459.41;5011053;28;19913;-57
2022/11/25 00:19:10;;;;;;;;;;;6.80;66.10;;;1.83;100.00;95464.22;5008324;28;19939;-53
2022/11/25 00:21:36;;;;;;;;;;;6.80;66.30;;;1.85;100.00;95463.00;5009921;28;19909;-53
2022/11/25 00:24:05;;;;;;;;;;;6.80;66.20;;;1.88;100.00;95474.91;5008631;28;20272;-56
2022/11/25 00:26:34;;;;;;;;;;;6.80;66.20;;;1.86;100.00;95466.44;4977777;28;19917;-57
2022/11/25 00:29:04;;;;;;;;;;;6.80;66.30;;;1.86;100.00;95474.31;4993000;28;20279;-53
2022/11/25 00:31:33;;;;;;;;;;;6.80;66.20;;;1.85;100.00;95475.34;4993669;28;20015;-57
2022/11/25 00:34:03;;;;;;;;;;;6.80;66.20;;;1.85;100.00;95470.09;5009854;28;20379;-57
2022/11/25 00:36:38;;;;;;;;;;;6.80;66.20;;;1.83;100.00;95472.09;4992184;28;19909;-57
2022/11/25 00:39:27;;;;;;;;;;;6.80;66.30;;;1.77;100.00;95471.13;4993444;28;19935;-53
2022/11/25 00:44:39;;;;;;;;;;;6.70;66.20;;;1.78;100.00;95471.94;5009875;28;20055;-56
2022/11/25 00:47:09;;;;;;;;;;;6.70;66.30;;;1.76;100.00;95477.41;5008759;28;20039;-53
2022/11/25 00:49:40;;;;;;;;;;;6.70;66.40;;;1.79;100.00;95470.94;5010371;28;19955;-55
2022/11/25 00:52:07;;;;;;;;;;;6.80;66.40;;;1.79;100.00;95474.34;5009286;28;20000;-54
2022/11/25 00:54:33;;;;;;;;;;;6.70;66.40;;;1.81;100.00;95474.13;5008433;28;19916;-52
2022/11/25 00:56:59;;;;;;;;;;;6.70;66.40;;;1.82;100.00;95481.81;5009186;28;20371;-55
2022/11/25 00:59:30;;;;;;;;;;;6.80;66.50;;;1.83;100.00;95483.41;4990887;28;20007;-53
2022/11/25 01:01:59;;;;;;;;;;;6.70;66.50;;;1.83;100.00;95479.97;4992321;28;20445;-54
2022/11/25 01:04:25;;;;;;;;;;;6.80;66.50;;;1.82;100.00;95476.56;5009924;28;19916;-55
2022/11/25 01:06:51;;;;;;;;;;;6.80;66.50;;;1.78;100.00;95475.34;4991107;28;19921;-55
2022/11/25 01:09:16;;;;;;;;;;;6.80;66.50;;;1.80;100.00;95475.16;5010102;28;19913;-57
2022/11/25 01:11:42;;;;;;;;;;;6.80;66.50;;;1.78;100.00;95469.28;5008037;28;20378;-57
2022/11/25 01:14:08;;;;;;;;;;;6.70;66.50;;;1.78;100.00;95479.81;5010539;28;20459;-56
2022/11/25 01:16:35;;;;;;;;;;;6.80;66.60;;;1.78;100.00;95479.81;5010731;28;20084;-58
2022/11/25 01:19:04;;;;;;;;;;;6.80;66.50;;;1.77;100.00;95481.63;4992096;28;19936;-53
2022/11/25 01:21:34;;;;;;;;;;;6.70;66.50;;;1.86;100.00;95479.56;5009395;28;19909;-57
2022/11/25 01:24:05;;;;;;;;;;;6.80;66.80;;;1.89;100.00;95489.66;4976139;28;20291;-56
2022/11/25 01:26:35;;;;;;;;;;;6.80;67.40;;;1.90;100.00;95491.25;4993235;28;19924;-55
2022/11/25 01:29:15;;;;;;;;;;;6.80;66.80;;;1.92;100.00;95478.72;4975903;28;20011;-57
2022/11/25 01:31:56;;;;;;;;;;;6.80;66.90;;;1.95;100.00;95480.91;4976159;28;19916;-56
2022/11/25 01:34:25;;;;;;;;;;;6.80;66.90;;;1.97;100.00;95481.50;4992378;28;20460;-52
2022/11/25 01:36:51;;;;;;;;;;;6.80;66.90;;;1.94;100.00;95474.03;4992332;28;19909;-55
2022/11/25 01:39:25;;;;;;;;;;;6.80;66.80;;;1.90;100.00;95472.84;4992864;28;19991;-57
2022/11/25 01:41:56;;;;;;;;;;;6.80;66.80;;;1.93;100.00;95475.06;4991845;28;19909;-55
2022/11/25 01:44:27;;;;;;;;;;;6.80;66.80;;;1.92;100.00;95480.53;5009685;28;19917;-56
2022/11/25 01:47:10;;;;;;;;;;;6.80;66.70;;;1.94;100.00;95479.28;4992565;28;19913;-55
2022/11/25 01:50:01;;;;;;;;;;;6.90;66.80;;;1.94;100.00;95474.03;5009918;28;19909;-52
2022/11/25 01:52:36;;;;;;;;;;;6.90;66.90;;;1.96;100.00;95482.50;5009817;28;19948;-57
2022/11/25 01:55:12;;;;;;;;;;;6.90;66.90;;;2.02;100.00;95489.53;4975732;28;19948;-54
2022/11/25 01:57:59;;;;;;;;;;;6.90;66.90;;;2.06;100.00;95482.03;4993148;28;19909;-54
2022/11/25 02:00:29;;;;;;;;;;;6.90;67.00;;;2.05;100.00;95478.63;4992250;28;19909;-55
2022/11/25 02:02:57;;;;;;;;;;;6.90;67.00;;;2.08;100.00;95477.38;4994404;28;19913;-57
2022/11/25 02:06:06;;;;;;;;;;;7.00;67.00;;;2.06;100.00;95472.31;5008176;28;20015;-56
2022/11/25 02:08:35;;;;;;;;;;;7.00;67.00;;;2.08;100.00;95472.94;5004804;28;20006;-56
2022/11/25 02:11:04;;;;;;;;;;;7.00;67.00;;;2.07;100.00;95468.69;4995056;28;19945;-56
2022/11/25 02:13:35;;;;;;;;;;;7.00;67.00;;;2.07;100.00;95466.06;5013171;28;20521;-53
2022/11/25 02:16:01;;;;;;;;;;;7.00;67.00;;;2.11;100.00;95458.56;4996558;28;19909;-54
2022/11/25 02:18:34;;;;;;;;;;;7.00;67.00;;;2.22;100.00;95462.31;5010981;28;20359;-56
2022/11/25 02:21:03;;;;;;;;;;;7.10;67.10;;;2.26;100.00;95459.06;4996364;28;19909;-56
2022/11/25 02:23:52;;;;;;;;;;;7.10;67.10;;;2.31;100.00;95461.81;4978337;28;19920;-56
2022/11/25 02:26:20;;;;;;;;;;;7.20;67.20;;;2.32;100.00;95446.88;5011502;28;19920;-57
2022/11/25 02:28:49;;;;;;;;;;;7.20;67.10;;;2.36;100.00;95450.66;4995861;28;19916;-55
2022/11/25 02:31:22;;;;;;;;;;;7.20;67.10;;;2.42;100.00;95443.75;4994771;28;19920;-55
2022/11/25 02:33:57;;;;;;;;;;;7.30;67.20;;;2.46;100.00;95452.81;4995518;28;20015;-58
2022/11/25 02:36:23;;;;;;;;;;;7.30;67.20;;;2.50;100.00;95448.72;5010296;28;20337;-55
2022/11/25 02:39:02;;;;;;;;;;;7.30;67.20;;;2.50;100.00;95452.16;4996124;28;19913;-57
2022/11/25 02:42:02;;;;;;;;;;;7.40;67.20;;;2.54;100.00;95447.28;5012755;28;19944;-57
2022/11/25 02:44:31;;;;;;;;;;;7.50;67.20;;;2.55;100.00;95444.41;5012223;28;19909;-56
2022/11/25 02:46:57;;;;;;;;;;;7.40;67.10;;;2.58;100.00;95437.13;4994940;28;19967;-57
2022/11/25 02:49:29;;;;;;;;;;;7.50;67.10;;;2.58;100.00;95447.66;4995474;28;20022;-58
2022/11/25 02:52:00;;;;;;;;;;;7.50;67.00;;;2.55;100.00;95441.78;4979685;28;19909;-57
2022/11/25 02:57:23;;;;;;;;;;;7.60;67.00;;;2.63;100.00;95447.78;5012772;28;19916;-54
2022/11/25 03:00:06;;;;;;;;;;;7.60;67.00;;;2.66;100.00;95448.16;4978123;28;20302;-56
2022/11/25 03:02:32;;;;;;;;;;;7.60;66.90;;;2.66;100.00;95466.56;5012545;28;20465;-54
2022/11/25 03:04:58;;;;;;;;;;;7.60;66.90;;;2.70;100.00;95457.22;4994317;28;19917;-56
2022/11/25 03:07:24;;;;;;;;;;;7.60;66.90;;;2.73;100.00;95461.25;5012577;28;19909;-54
2022/11/25 03:09:53;;;;;;;;;;;7.60;66.90;;;2.74;100.00;95452.34;5012409;28;20288;-56
2022/11/25 03:12:18;;;;;;;;;;;7.70;66.90;;;2.74;100.00;95457.59;4993598;28;19909;-55
2022/11/25 03:14:47;;;;;;;;;;;7.70;66.80;;;2.74;100.00;95449.69;5012537;28;19919;-58
2022/11/25 03:17:26;;;;;;;;;;;7.70;66.80;;;2.75;100.00;95457.34;5010632;28;19940;-57
2022/11/25 03:20:06;;;;;;;;;;;7.70;66.70;;;2.81;100.00;95458.31;5012643;28;19936;-54
2022/11/25 03:22:38;;;;;;;;;;;7.70;66.70;;;2.80;100.00;95456.72;4978534;28;20013;-56
2022/11/25 03:25:08;;;;;;;;;;;7.70;66.70;;;2.80;100.00;95458.56;5011327;28;19909;-56
2022/11/25 03:27:39;;;;;;;;;;;7.80;66.70;;;2.77;99.67;95457.97;4994820;28;19916;-58
2022/11/25 03:30:12;;;;;;;;;;;7.80;66.70;;;2.81;99.53;95465.41;5009494;28;19916;-53
2022/11/25 03:32:38;;;;;;;;;;;7.80;66.70;;;2.84;99.78;95459.72;4994460;28;20372;-53
2022/11/25 03:35:08;;;;;;;;;;;7.80;66.60;;;2.86;99.70;95458.47;5010950;28;19919;-54
2022/11/25 03:37:37;;;;;;;;;;;7.80;66.60;;;2.82;100.00;95454.69;5012186;28;20307;-56
2022/11/25 03:40:05;;;;;;;;;;;7.80;66.50;;;2.83;99.96;95458.91;4994727;28;20379;-51
2022/11/25 03:42:31;;;;;;;;;;;7.80;66.40;;;2.83;99.69;95466.00;4974856;28;19916;-55
2022/11/25 03:45:01;;;;;;;;;;;7.80;66.40;;;2.85;99.42;95458.69;5011928;28;19924;-54
2022/11/25 03:47:27;;;;;;;;;;;7.80;66.40;;;2.89;99.31;95465.13;4993917;28;20274;-52
2022/11/25 03:50:02;;;;;;;;;;;7.80;66.50;;;2.93;99.13;95466.28;4994508;28;19912;-54
2022/11/25 03:52:28;;;;;;;;;;;7.80;66.50;;;2.94;98.79;95470.53;5012021;28;19955;-56
2022/11/25 03:54:56;;;;;;;;;;;7.80;66.50;;;2.96;98.59;95471.91;5010891;28;19917;-55
2022/11/25 03:57:25;;;;;;;;;;;7.80;66.50;;;2.98;98.63;95471.72;4994256;28;20410;-54
2022/11/25 03:59:54;;;;;;;;;;;7.90;66.50;;;2.98;98.07;95477.78;5010753;28;20383;-56
2022/11/25 04:02:19;;;;;;;;;;;7.90;66.50;;;2.99;98.37;95481.22;4993550;28;19962;-55
2022/11/25 04:04:51;;;;;;;;;;;7.90;66.50;;;3.01;97.77;95479.97;4993156;28;19913;-54
2022/11/25 04:07:20;;;;;;;;;;;7.90;66.50;;;3.04;97.56;95481.38;5010661;28;19909;-55
2022/11/25 04:09:49;;;;;;;;;;;7.90;67.30;;;3.06;96.73;95486.41;5011584;28;19908;-53
2022/11/25 04:15:05;;;;;;;;;;;7.90;66.40;;;3.11;96.66;95483.91;5011083;28;19952;-53
2022/11/25 04:17:43;;;;;;;;;;;8.00;66.50;;;3.12;95.98;95483.69;5009872;28;19949;-55
2022/11/25 04:20:12;;;;;;;;;;;8.00;66.40;;;3.16;96.22;95481.41;4993349;28;19913;-55
2022/11/25 04:22:38;;;;;;;;;;;8.00;66.40;;;3.14;96.01;95475.59;4993296;28;19931;-57
2022/11/25 04:25:08;;;;;;;;;;;8.00;66.30;;;3.14;96.38;95483.47;4991974;28;20507;-57
2022/11/25 04:27:37;;;;;;;;;;;8.00;66.20;;;3.16;96.86;95470.88;4994381;28;20392;-56
2022/11/25 04:30:04;;;;;;;;;;;8.00;66.10;;;3.14;96.16;95475.59;4976311;28;19909;-51
2022/11/25 04:32:33;;;;;;;;;;;8.10;66.20;;;3.15;96.60;95485.88;4993679;28;20283;-55
2022/11/25 04:34:58;;;;;;;;;;;8.00;66.10;;;3.13;96.47;95489.75;4992298;28;19913;-53
2022/11/25 04:37:27;;;;;;;;;;;8.00;66.10;;;3.14;96.47;95488.75;5011104;28;19909;-54
2022/11/25 04:39:56;;;;;;;;;;;8.10;66.10;;;3.12;96.17;95488.16;4989897;28;20208;-55
2022/11/25 04:42:30;;;;;;;;;;;8.00;66.00;;;3.14;96.45;95483.47;5001542;28;19920;-53
2022/11/25 04:44:56;;;;;;;;;;;8.00;66.10;;;3.17;96.72;95490.94;4989572;28;20058;-54
2022/11/25 04:47:31;;;;;;;;;;;8.00;66.10;;;3.12;96.36;95488.16;5004073;28;20318;-52
2022/11/25 04:50:00;;;;;;;;;;;8.10;66.10;;;3.10;96.87;95485.72;5010923;28;19920;-54
2022/11/25 04:52:26;;;;;;;;;;;8.00;66.00;;;3.04;97.30;95489.25;4992965;28;19917;-53
2022/11/25 04:54:53;;;;;;;;;;;8.00;66.00;;;3.08;96.84;95487.78;4985932;28;19916;-51
2022/11/25 04:57:22;;;;;;;;;;;8.00;66.00;;;3.03;96.32;95481.56;5009533;28;19920;-55
2022/11/25 04:59:51;;;;;;;;;;;8.00;65.90;;;3.01;97.59;95481.81;4985399;28;19945;-54
2022/11/25 05:02:27;;;;;;;;;;;8.00;66.70;;;2.97;96.96;95484.03;5005796;28;20039;-52
2022/11/25 05:04:56;;;;;;;;;;;7.90;65.80;;;2.95;97.03;95487.94;4976450;28;20276;-53
2022/11/25 05:07:26;;;;;;;;;;;7.90;65.80;;;2.93;96.92;95482.09;5010275;28;19944;-56
2022/11/25 05:09:52;;;;;;;;;;;7.80;65.80;;;2.84;97.71;95483.41;5009667;28;20616;-54
2022/11/25 05:12:25;;;;;;;;;;;7.80;65.70;;;2.81;98.21;95478.56;4988332;28;20316;-54
2022/11/25 05:14:51;;;;;;;;;;;7.80;65.70;;;2.75;97.82;95493.38;5002878;28;19913;-54
2022/11/25 05:17:24;;;;;;;;;;;7.70;65.70;;;2.70;97.93;95488.78;5009109;28;19939;-57
2022/11/25 05:19:57;;;;;;;;;;;7.60;65.80;;;2.65;97.73;95496.50;4993288;28;19916;-56
2022/11/25 05:22:30;;;;;;;;;;;7.60;65.80;;;2.59;98.26;95500.00;4991829;28;19913;-57
2022/11/25 05:24:56;;;;;;;;;;;7.60;65.90;;;2.54;98.09;95500.69;4974804;28;19937;-57
2022/11/25 05:27:24;;;;;;;;;;;7.50;65.90;;;2.52;98.37;95507.16;5010056;28;20007;-57
2022/11/25 05:29:50;;;;;;;;;;;7.40;65.90;;;2.47;98.08;95494.66;4987690;28;19913;-57
2022/11/25 05:32:21;;;;;;;;;;;7.40;66.00;;;2.43;98.95;95511.06;5009730;28;20291;-55
2022/11/25 05:34:47;;;;;;;;;;;7.40;66.00;;;2.40;99.21;95508.88;5008997;28;19913;-57
2022/11/25 05:37:16;;;;;;;;;;;7.40;66.10;;;2.44;99.20;95517.94;5011475;28;19909;-53
2022/11/25 05:39:42;;;;;;;;;;;7.40;66.10;;;2.44;98.89;95512.69;4996282;28;19909;-54
2022/11/25 05:42:07;;;;;;;;;;;7.40;66.10;;;2.41;98.91;95511.28;5012917;28;19916;-54
2022/11/25 05:44:33;;;;;;;;;;;7.40;66.20;;;2.40;98.83;95512.31;4996590;28;19963;-55
2022/11/25 05:46:59;;;;;;;;;;;7.40;66.20;;;2.39;98.64;95515.16;4995806;28;19913;-53
2022/11/25 05:49:27;;;;;;;;;;;7.30;66.20;;;2.37;98.42;95504.84;4996218;28;20485;-56
2022/11/25 05:51:53;;;;;;;;;;;7.30;66.10;;;2.33;98.55;95498.41;4996423;28;19913;-57
2022/11/25 05:54:19;;;;;;;;;;;7.30;66.20;;;2.33;98.56;95505.50;4994899;28;19924;-56
2022/11/25 05:56:48;;;;;;;;;;;7.30;66.20;;;2.33;98.17;95506.31;4996630;28;19909;-56
2022/11/25 05:59:13;;;;;;;;;;;7.20;66.20;;;2.30;97.99;95501.47;5013213;28;19913;-56
2022/11/25 06:01:39;;;;;;;;;;;7.20;66.30;;;2.25;97.89;95502.09;4995764;28;19917;-58
2022/11/25 06:04:05;;;;;;;;;;;7.20;66.30;;;2.22;98.13;95513.03;5013331;28;19948;-57
2022/11/25 06:06:31;;;;;;;;;;;7.20;66.40;;;2.23;98.09;95517.31;4985074;28;20291;-54
2022/11/25 06:08:57;;;;;;;;;;;7.10;66.30;;;2.24;97.54;95518.09;5013517;28;19916;-53
2022/11/25 06:11:26;;;;;;;;;;;7.10;66.30;;;2.22;97.29;95534.06;4994332;28;19920;-54
2022/11/25 06:13:57;;;;;;;;;;;7.10;66.30;;;2.23;97.18;95534.91;5013063;28;19913;-57
2022/11/25 06:16:24;;;;;;;;;;;7.10;66.40;;;2.18;96.83;95538.16;5012277;28;19919;-57
2022/11/25 06:18:50;;;;;;;;;;;7.10;66.40;;;2.15;96.84;95538.56;4978843;28;20290;-53
2022/11/25 06:21:17;;;;;;;;;;;7.10;66.30;;;2.03;97.64;95538.44;4995917;28;20005;-56
2022/11/25 06:23:44;;;;;;;;;;;7.10;66.20;;;2.03;97.52;95542.91;4978379;28;19915;-55
2022/11/25 06:26:19;;;;;;;;;;;7.00;66.20;;;1.97;98.10;95533.22;5013776;28;19909;-56
2022/11/25 06:28:47;;;;;;;;;;;7.00;66.10;;;1.88;98.89;95535.34;4980524;28;19909;-55
2022/11/25 06:31:22;;;;;;;;;;;7.00;66.10;;;1.85;99.08;95539.19;4994562;28;20384;-57
2022/11/25 06:33:51;;;;;;;;;;;6.90;66.10;;;1.79;98.89;95537.38;4995431;28;19913;-57
2022/11/25 06:36:19;;;;;;;;;;;6.90;66.10;;;1.76;98.12;95542.25;4978613;28;20253;-57
2022/11/25 06:38:50;;;;;;;;;;;6.80;66.00;;;1.66;98.72;95537.47;5012339;28;20331;-55
2022/11/25 06:41:17;;;;;;;;;;;6.80;66.00;;;1.64;98.12;95533.44;4981173;28;19959;-54
2022/11/25 06:43:43;;;;;;;;;;;6.70;66.00;;;1.54;98.88;95547.81;5004445;28;19909;-55
2022/11/25 06:46:15;;;;;;;;;;;6.60;65.90;;;1.48;99.08;95548.66;4995422;28;19913;-57
2022/11/25 06:48:41;;;;;;;;;;;6.60;65.90;;;1.47;98.96;95554.88;4994056;28;20458;-54
2022/11/25 06:51:12;;;;;;;;;;;6.50;66.00;;;1.43;99.16;95545.81;5013367;28;20007;-52
2022/11/25 06:53:39;;;;;;;;;;;6.50;66.00;;;1.36;99.59;95552.94;5012246;28;19963;-56
2022/11/25 06:56:26;;;;;;;;;;;6.40;66.00;;;1.32;99.57;95557.78;5012908;28;20434;-57
2022/11/25 06:58:54;;;;;;;;;;;6.40;66.00;;;1.27;99.24;95557.59;4979533;28;19909;-54
2022/11/25 07:01:27;;;;;;;;;;;6.30;66.10;;;1.24;99.55;95570.31;5011394;28;19920;-57
2022/11/25 07:04:03;;;;;;;;;;;6.30;66.10;;;1.15;99.43;95567.91;4995248;28;19913;-57
2022/11/25 07:06:32;;;;;;;;;;;6.20;66.00;;;1.07;99.95;95562.09;4970918;28;19933;-56
2022/11/25 07:09:01;;;;;;;;;;;6.20;66.10;;;1.05;100.00;95566.75;4994519;28;19910;-54
2022/11/25 07:11:31;;;;;;;;;;;6.20;66.20;;;1.08;100.00;95575.00;4990543;28;19948;-51
2022/11/25 07:14:05;;;;;;;;;;;6.20;66.30;;;1.07;100.00;95572.59;4978134;28;19921;-55
2022/11/25 07:16:36;;;;;;;;;;;6.10;66.30;;;1.03;100.00;95579.25;4979995;28;20265;-54
2022/11/25 07:19:05;;;;;;;;;;;6.20;66.40;;;1.06;100.00;95576.22;4986268;28;19916;-55
2022/11/25 07:21:35;;;;;;;;;;;6.10;66.30;;;1.07;100.00;95588.34;4979235;28;20403;-52
2022/11/25 07:24:04;;;;;;;;;;;6.20;66.40;;;1.08;100.00;95580.25;5002869;28;19917;-57
2022/11/25 07:26:37;;;;;;;;;;;6.20;66.40;;;1.18;100.00;95597.38;4975969;28;19917;-56
2022/11/25 07:29:07;;;;;;;;;;;6.20;66.40;;;1.19;100.00;95591.91;4978228;28;19928;-54
2022/11/25 07:31:36;;;;;;;;;;;6.30;66.50;;;1.25;100.00;95598.97;4976762;28;19909;-56
2022/11/25 07:34:16;;;;;;;;;;;6.30;66.50;;;1.30;100.00;95598.38;4995073;28;19913;-55
2022/11/25 07:36:47;;;;;;;;;;;6.30;66.50;;;1.36;100.00;95603.59;4983640;28;19913;-57
2022/11/25 07:39:30;;;;;;;;;;;6.40;66.50;;;1.40;100.00;95604.00;5011342;28;20287;-57
2022/11/25 07:42:10;;;;;;;;;;;6.40;66.50;;;1.48;100.00;95616.91;5011201;28;20031;-54
2022/11/25 07:44:36;;;;;;;;;;;6.50;66.50;;;1.53;100.00;95617.06;4988808;28;20397;-56
2022/11/25 07:47:01;;;;;;;;;;;6.60;66.60;;;1.61;100.00;95619.47;4984327;28;19913;-52
2022/11/25 07:49:27;;;;;;;;;;;6.70;66.60;;;1.69;100.00;95620.25;4993687;28;19913;-56
2022/11/25 07:52:04;;;;;;;;;;;6.70;66.50;;;1.76;100.00;95624.47;4991381;28;20268;-57
2022/11/25 07:54:31;;;;;;;;;;;6.80;66.50;;;1.85;100.00;95622.44;4985496;28;19960;-56
2022/11/25 07:57:00;;;;;;;;;;;6.90;66.60;;;1.90;100.00;95614.72;4993824;28;19909;-54
2022/11/25 07:59:29;;;;;;;;;;;7.00;66.50;;;1.96;100.00;95620.97;4990750;28;19947;-57
2022/11/25 08:01:57;;;;;;;;;;;7.10;66.50;;;2.03;100.00;95614.63;4974655;28;20387;-57
2022/11/25 08:04:23;;;;;;;;;;;7.10;66.40;;;2.11;100.00;95615.44;4991733;28;19913;-57
2022/11/25 08:06:55;;;;;;;;;;;7.20;66.50;;;2.22;100.00;95625.25;4986332;28;19920;-57
2022/11/25 08:09:27;;;;;;;;;;;7.40;66.60;;;2.32;100.00;95628.25;5010992;28;20306;-54
2022/11/25 08:11:59;;;;;;;;;;;7.50;66.50;;;2.42;100.00;95630.41;5010546;28;20306;-51
2022/11/25 08:14:25;;;;;;;;;;;7.60;66.50;;;2.48;100.00;95630.38;5011401;28;19937;-56
2022/11/25 08:17:00;;;;;;;;;;;7.70;66.50;;;2.56;100.00;95637.19;5011813;28;19909;-57
2022/11/25 08:19:28;;;;;;;;;;;7.80;66.40;;;2.63;100.00;95635.31;5010711;28;20323;-57
2022/11/25 08:21:54;;;;;;;;;;;7.80;66.30;;;2.69;100.00;95637.09;5010467;28;19909;-58
2022/11/25 08:24:20;;;;;;;;;;;7.90;66.30;;;2.74;100.00;95633.84;5000423;28;19916;-56
2022/11/25 08:26:50;;;;;;;;;;;8.00;66.30;;;2.84;100.00;95646.50;4995026;28;20027;-57
2022/11/25 08:29:18;;;;;;;;;;;8.10;66.30;;;2.96;100.00;95647.44;4993284;28;19909;-57
2022/11/25 08:31:44;;;;;;;;;;;8.30;66.30;;;3.11;100.00;95655.00;4993802;28;19909;-58
2022/11/25 08:34:19;;;;;;;;;;;8.50;66.40;;;3.33;100.00;95656.22;4987755;28;20391;-51
2022/11/25 08:36:45;;;;;;;;;;;8.80;66.30;;;3.54;100.00;95654.19;4992135;28;19998;-57
2022/11/25 08:39:11;;;;;;;;;;;9.00;66.30;;;3.76;99.26;95652.75;5008741;28;19909;-58
2022/11/25 08:41:37;;;;;;;;;;;9.30;66.10;;;4.02;99.08;95654.28;4980739;28;19909;-55
2022/11/25 08:44:07;;;;;;;;;;;9.60;66.00;;;4.28;97.13;95665.50;4991816;28;20387;-55
2022/11/25 08:46:37;;;;;;;;;;;9.90;65.80;;;4.51;93.82;95662.97;4977411;28;20403;-53
2022/11/25 08:49:06;;;;;;;;;;;10.30;65.70;;;4.80;93.85;95663.97;4991629;28;19909;-56
2022/11/25 08:51:35;;;;;;;;;;;10.50;65.40;;;5.04;91.54;95667.44;4977813;28;19908;-58
2022/11/25 08:54:01;;;;;;;;;;;10.80;65.30;;;5.31;91.91;95670.47;5008362;28;20318;-55
2022/11/25 08:56:27;;;;;;;;;;;11.00;65.10;;;5.52;90.68;95670.94;5009921;28;19932;-56
2022/11/25 08:58:54;;;;;;;;;;;11.20;64.90;;;5.71;90.07;95669.78;4996834;28;20257;-56
2022/11/25 09:01:23;;;;;;;;;;;11.40;64.70;;;5.88;88.04;95666.44;4996039;28;19909;-54
2022/11/25 09:03:53;;;;;;;;;;;11.60;64.40;;;6.00;87.78;95683.91;5007987;28;19920;-54
2022/11/25 09:06:24;;;;;;;;;;;11.60;64.10;;;6.12;84.70;95683.09;4992112;28;19925;-58
2022/11/25 09:08:50;;;;;;;;;;;11.80;64.00;;;6.18;82.91;95682.16;5009589;28;19964;-57
2022/11/25 09:11:16;;;;;;;;;;;11.90;63.80;;;6.29;82.29;95683.16;4995652;28;22507;-54
2022/11/25 09:13:42;;;;;;;;;;;12.00;63.50;;;6.43;82.78;95687.16;4991508;28;20245;-57
2022/11/25 09:16:08;;;;;;;;;;;12.20;63.30;;;6.51;78.51;95697.34;5009953;28;19916;-60
2022/11/25 09:18:35;;;;;;;;;;;12.40;63.10;;;6.68;81.01;95694.75;4977282;28;20015;-54
2022/11/25 09:21:11;;;;;;;;;;;12.50;62.80;;;6.84;80.58;95703.78;4993271;28;19935;-56
2022/11/25 09:23:40;;;;;;;;;;;12.60;62.60;;;7.00;79.06;95700.34;5009608;28;20290;-55
2022/11/25 09:26:34;;;;;;;;;;;12.80;62.50;;;7.14;75.83;95708.78;4993380;28;19944;-57
2022/11/25 09:29:00;;;;;;;;;;;13.00;62.30;;;7.28;77.51;95710.09;4989968;28;19935;-51
2022/11/25 09:31:26;;;;;;;;;;;13.20;62.10;;;7.37;75.69;95727.19;5009005;28;20359;-57
2022/11/25 09:33:55;;;;;;;;;;;13.30;61.90;;;7.44;75.79;95729.69;4991659;28;20399;-58
2022/11/25 09:36:27;;;;;;;;;;;13.30;61.70;;;7.50;72.65;95735.88;4975649;28;19940;-58
2022/11/25 09:38:53;;;;;;;;;;;13.40;61.40;;;7.46;73.55;95730.25;4984974;28;19913;-57
2022/11/25 09:48:40;;;;;;;;;;;13.40;60.90;;;7.64;73.22;95739.81;5009090;28;19919;-54
2022/11/25 09:51:33;;;;;;;;;;;13.40;60.80;;;7.70;74.37;95751.28;5010367;28;19924;-55
2022/11/25 09:54:23;;;;;;;;;;;13.50;60.70;;;7.74;76.30;95753.22;4973173;28;20376;-52
2022/11/25 09:57:08;;;;;;;;;;;13.60;60.60;;;7.81;75.74;95761.03;4976672;28;19913;-56
2022/11/25 09:59:47;;;;;;;;;;;13.60;60.40;;;7.86;75.28;95753.91;5008171;28;19909;-54
2022/11/25 10:02:33;;;;;;;;;;;13.70;60.30;;;7.95;74.71;95758.81;5006266;28;20357;-57
2022/11/25 10:08:26;;;;;;;;;;;13.80;60.00;;;8.06;72.85;95756.09;5026071;28;20394;-52
2022/11/25 10:11:23;;;;;;;;;;;13.80;59.90;;;8.05;71.64;95759.78;5012608;28;19912;-51
2022/11/25 10:14:34;;;;;;;;;;;13.80;59.80;;;8.04;72.00;95755.50;5009786;28;19913;-50
2022/11/25 10:17:24;;;;;;;;;;;13.80;59.70;;;7.99;71.98;95752.81;5004197;28;20010;-55
2022/11/25 10:20:18;;;;;;;;;;;13.70;59.60;;;8.00;73.12;95759.72;4989399;28;19916;-49
2022/11/25 10:23:34;;;;;;;;;;;13.70;59.50;;;8.08;74.12;95758.47;5010493;28;19916;-48
2022/11/25 10:26:21;;;;;;;;;;;13.70;59.50;;;8.09;74.91;95758.25;4945735;28;19910;-49
2022/11/25 10:28:58;;;;;;;;;;;13.70;59.50;;;8.04;74.42;95766.13;4974810;28;20008;-48
2022/11/25 10:31:35;;;;;;;;;;;13.70;59.50;;;8.07;75.25;95762.19;4995136;28;19908;-52
2022/11/25 10:34:11;;;;;;;;;;;13.70;59.50;;;8.07;75.46;95755.03;4992706;28;20295;-48
2022/11/25 10:36:40;;;;;;;;;;;13.70;59.50;;;8.05;76.27;95746.53;4995364;28;19913;-50
2022/11/25 10:39:23;;;;;;;;;;;13.80;59.40;;;8.11;78.74;95752.69;4992551;28;19917;-48
2022/11/25 10:42:16;;;;;;;;;;;13.80;59.40;;;8.13;79.50;95745.28;4994529;28;19909;-49
2022/11/25 10:44:44;;;;;;;;;;;13.90;60.00;;;8.17;78.25;95741.09;4964652;28;20372;-48
2022/11/25 10:47:50;;;;;;;;;;;13.90;59.30;;;8.14;77.61;95733.63;5005416;28;19916;-48
2022/11/25 10:50:32;;;;;;;;;;;13.90;59.30;;;8.18;80.59;95737.41;5013473;28;19909;-50
2022/11/25 10:53:07;;;;;;;;;;;13.80;59.90;;;7.99;80.59;95736.91;4996562;28;19936;-54
2022/11/25 10:55:34;;;;;;;;;;;13.80;59.20;;;7.96;80.84;95732.06;5008995;28;20040;-52
2022/11/25 10:58:38;;;;;;;;;;;13.70;59.20;;;7.91;81.89;95725.88;4995749;28;20004;-50
2022/11/25 11:01:24;;;;;;;;;;;13.60;59.30;;;7.89;83.26;95718.16;5011737;28;19909;-50
2022/11/25 11:04:02;;;;;;;;;;;13.50;59.40;;;7.91;84.31;95721.38;5012949;28;20425;-52
2022/11/25 11:06:43;;;;;;;;;;;13.50;59.60;;;7.96;86.49;95723.28;4982662;28;20066;-50
2022/11/25 11:09:36;;;;;;;;;;;13.40;59.70;;;7.95;85.35;95711.88;5011668;28;19941;-51
2022/11/25 11:12:28;;;;;;;;;;;13.40;59.70;;;7.97;87.12;95714.31;5011496;28;19913;-49
2022/11/25 11:15:36;;;;;;;;;;;13.40;59.80;;;8.03;86.42;95698.22;4995401;28;19924;-48
2022/11/25 11:18:25;;;;;;;;;;;13.50;59.90;;;8.10;87.72;95692.72;5011855;28;19909;-50
2022/11/25 11:20:59;;;;;;;;;;;13.50;60.00;;;8.15;87.30;95699.94;4993174;28;19916;-50
2022/11/25 11:23:28;;;;;;;;;;;13.60;60.00;;;8.20;87.52;95705.31;4992933;28;19909;-48
2022/11/25 11:26:20;;;;;;;;;;;13.70;60.00;;;8.26;86.12;95701.69;5000184;28;19913;-53
2022/11/25 11:29:14;;;;;;;;;;;13.70;60.00;;;8.30;84.12;95703.59;4980541;28;19909;-48
2022/11/25 11:32:03;;;;;;;;;;;13.80;59.90;;;8.37;85.16;95710.56;4994654;28;19913;-55
2022/11/25 11:34:31;;;;;;;;;;;13.90;59.80;;;8.46;85.66;95701.13;4993798;28;19984;-48
2022/11/25 11:37:35;;;;;;;;;;;14.00;59.80;;;8.62;85.16;95705.59;5019674;28;19920;-50
2022/11/25 11:41:11;;;;;;;;;;;14.20;59.80;;;8.73;84.69;95704.63;5011125;28;19916;-50
2022/11/25 11:44:15;;;;;;;;;;;14.30;59.70;;;8.77;83.40;95704.94;4968511;28;19909;-49
2022/11/25 11:47:22;;;;;;;;;;;14.30;59.70;;;8.74;83.72;95705.44;5012358;28;19913;-51
2022/11/25 11:50:25;;;;;;;;;;;14.30;59.70;;;8.83;82.59;95705.78;5012414;28;19944;-52
2022/11/25 11:53:01;;;;;;;;;;;14.30;59.70;;;8.88;83.39;95708.50;5018630;28;19912;-47
2022/11/25 11:55:46;;;;;;;;;;;14.30;59.80;;;8.92;82.71;95698.97;5011789;28;20352;-49
2022/11/25 11:58:42;;;;;;;;;;;14.40;59.70;;;8.86;82.21;95700.78;5013653;28;19921;-49
2022/11/25 12:02:06;;;;;;;;;;;14.40;59.60;;;8.98;82.31;95709.41;5010526;28;20379;-48
2022/11/25 12:04:49;;;;;;;;;;;14.50;59.70;;;9.01;82.70;95703.59;4962430;28;19921;-47
2022/11/25 12:07:27;;;;;;;;;;;14.50;59.60;;;8.99;82.80;95712.84;5001759;28;19917;-49
2022/11/25 12:10:02;;;;;;;;;;;14.40;59.60;;;8.98;84.49;95712.06;5011646;28;19936;-49
2022/11/25 12:12:44;;;;;;;;;;;14.40;59.70;;;8.97;85.31;95713.13;4990115;28;19956;-48
2022/11/25 12:15:55;;;;;;;;;;;14.40;59.70;;;8.94;85.91;95721.59;5010322;28;19913;-48